createdAt,value
2022-10-14T00:01:33.009Z,9.82
2022-10-14T00:04:00.351Z,9.83
2022-10-14T00:06:30.493Z,9.81
2022-10-14T00:09:00.407Z,9.80
2022-10-14T00:11:31.395Z,9.78
2022-10-14T00:14:02.201Z,9.81
2022-10-14T00:16:33.729Z,9.81
2022-10-14T00:19:01.440Z,9.84
2022-10-14T00:21:28.998Z,9.90
2022-10-14T00:23:56.886Z,9.85
2022-10-14T00:26:26.119Z,9.75
2022-10-14T00:28:53.446Z,9.68
2022-10-14T00:31:20.865Z,9.72
2022-10-14T00:33:48.225Z,9.76
2022-10-14T00:36:17.180Z,9.76
2022-10-14T00:38:45.479Z,9.75
2022-10-14T00:41:16.972Z,9.75
2022-10-14T00:44:07.894Z,9.75
2022-10-14T00:46:36.928Z,9.67
2022-10-14T00:49:15.863Z,9.62
2022-10-14T00:51:47.899Z,9.59
2022-10-14T00:54:17.946Z,9.55
2022-10-14T00:56:49.320Z,9.61
2022-10-14T00:59:16.555Z,9.64
2022-10-14T01:01:43.248Z,9.64
2022-10-14T01:04:09.834Z,9.67
2022-10-14T01:06:44.217Z,9.70
2022-10-14T01:09:26.023Z,9.63
2022-10-14T01:12:28.044Z,9.58
2022-10-14T01:15:11.520Z,9.49
2022-10-14T01:18:00.226Z,9.35
2022-10-14T01:20:58.393Z,9.32
2022-10-14T01:23:38.311Z,9.33
2022-10-14T01:26:23.366Z,9.41
2022-10-14T01:29:28.060Z,9.43
2022-10-14T01:32:03.993Z,9.38
2022-10-14T01:34:37.830Z,9.34
2022-10-14T01:37:12.582Z,9.45
2022-10-14T01:39:44.779Z,9.43
2022-10-14T01:42:16.340Z,9.42
2022-10-14T01:44:47.495Z,9.41
2022-10-14T01:47:18.516Z,9.40
2022-10-14T01:49:52.980Z,9.37
2022-10-14T01:52:27.476Z,9.34
2022-10-14T01:54:59.850Z,9.36
2022-10-14T01:57:29.980Z,9.35
2022-10-14T01:59:58.426Z,9.40
2022-10-14T02:02:25.657Z,9.37
2022-10-14T02:04:52.628Z,9.43
2022-10-14T02:07:33.195Z,9.50
2022-10-14T02:10:14.600Z,9.56
2022-10-14T02:12:57.656Z,9.60
2022-10-14T02:15:34.548Z,9.61
2022-10-14T02:18:17.807Z,9.61
2022-10-14T02:20:54.636Z,9.59
2022-10-14T02:23:26.468Z,9.57
2022-10-14T02:25:54.938Z,9.57
2022-10-14T02:28:25.524Z,9.56
2022-10-14T02:30:57.828Z,9.57
2022-10-14T02:33:31.088Z,9.57
2022-10-14T02:35:58.021Z,9.95
2022-10-14T02:38:25.895Z,9.76
2022-10-14T02:40:53.015Z,9.69
2022-10-14T02:43:19.976Z,9.63
2022-10-14T02:45:46.605Z,9.66
2022-10-14T02:48:13.527Z,9.82
2022-10-14T02:50:41.485Z,9.95
2022-10-14T02:53:08.330Z,10.00
2022-10-14T02:55:35.180Z,10.01
2022-10-14T02:58:01.863Z,9.97
2022-10-14T03:00:28.582Z,10.05
2022-10-14T03:02:55.239Z,9.96
2022-10-14T03:05:21.847Z,10.06
2022-10-14T03:07:48.484Z,10.03
2022-10-14T03:10:15.459Z,10.02
2022-10-14T03:12:42.041Z,10.01
2022-10-14T03:15:09.455Z,10.02
2022-10-14T03:17:36.499Z,10.08
2022-10-14T03:20:05.392Z,10.18
2022-10-14T03:22:32.213Z,10.01
2022-10-14T03:24:59.094Z,9.97
2022-10-14T03:27:25.926Z,10.03
2022-10-14T03:29:52.554Z,10.09
2022-10-14T03:32:19.523Z,10.14
2022-10-14T03:34:46.356Z,9.99
2022-10-14T03:37:12.981Z,10.01
2022-10-14T03:39:39.664Z,9.93
2022-10-14T03:42:06.384Z,9.91
2022-10-14T03:44:33.035Z,9.91
2022-10-14T03:46:59.680Z,9.93
2022-10-14T03:49:26.378Z,10.01
2022-10-14T03:51:53.041Z,10.02
2022-10-14T03:54:19.655Z,9.95
2022-10-14T03:56:46.319Z,10.16
2022-10-14T03:59:12.925Z,10.11
2022-10-14T04:01:39.590Z,9.99
2022-10-14T04:04:06.411Z,9.94
2022-10-14T04:06:33.047Z,10.02
2022-10-14T04:08:59.708Z,10.00
2022-10-14T04:11:26.405Z,10.06
2022-10-14T04:13:53.027Z,9.97
2022-10-14T04:16:20.359Z,9.92
2022-10-14T04:18:47.029Z,9.90
2022-10-14T04:21:13.736Z,9.90
2022-10-14T04:23:40.348Z,9.93
2022-10-14T04:26:08.534Z,9.91
2022-10-14T04:28:35.608Z,9.91
2022-10-14T04:31:02.512Z,9.94
2022-10-14T04:33:29.222Z,9.96
2022-10-14T04:36:00.396Z,9.96
2022-10-14T04:38:27.580Z,9.97
2022-10-14T04:40:55.098Z,10.00
2022-10-14T04:43:22.030Z,10.00
2022-10-14T04:45:49.485Z,10.02
2022-10-14T04:48:17.259Z,10.03
2022-10-14T04:50:44.192Z,10.04
2022-10-14T04:53:13.767Z,10.05
2022-10-14T04:55:41.096Z,10.02
2022-10-14T04:58:11.164Z,10.05
2022-10-14T05:00:37.823Z,10.05
2022-10-14T05:03:05.070Z,10.06
2022-10-14T05:05:31.735Z,10.06
2022-10-14T05:07:58.444Z,10.07
2022-10-14T05:10:25.131Z,10.10
2022-10-14T05:12:55.034Z,10.11
2022-10-14T05:15:21.987Z,10.14
2022-10-14T05:17:48.597Z,10.14
2022-10-14T05:20:15.247Z,10.15
2022-10-14T05:22:45.250Z,10.15
2022-10-14T05:25:12.097Z,10.16
2022-10-14T05:27:38.976Z,10.20
2022-10-14T05:30:06.113Z,10.18
2022-10-14T05:32:33.411Z,10.19
2022-10-14T05:35:00.014Z,10.18
2022-10-14T05:37:26.898Z,10.22
2022-10-14T05:39:55.171Z,10.36
2022-10-14T05:42:22.414Z,10.28
2022-10-14T05:44:49.304Z,10.29
2022-10-14T05:47:15.954Z,10.27
2022-10-14T05:49:42.858Z,10.29
2022-10-14T05:52:09.516Z,10.31
2022-10-14T05:54:36.103Z,10.31
2022-10-14T05:57:02.829Z,10.31
2022-10-14T05:59:29.952Z,10.31
2022-10-14T06:01:57.106Z,10.31
2022-10-14T06:04:23.755Z,10.32
2022-10-14T06:06:50.452Z,10.32
2022-10-14T06:09:17.664Z,10.33
2022-10-14T06:11:44.559Z,10.37
2022-10-14T06:14:11.263Z,10.39
2022-10-14T06:16:37.955Z,10.39
2022-10-14T06:19:04.670Z,10.40
2022-10-14T06:21:31.294Z,10.39
2022-10-14T06:23:57.895Z,10.40
2022-10-14T06:26:24.512Z,10.40
2022-10-14T06:28:51.175Z,10.42
2022-10-14T06:31:17.884Z,10.43
2022-10-14T06:33:45.128Z,10.43
2022-10-14T06:36:12.162Z,10.45
2022-10-14T06:38:38.898Z,10.49
2022-10-14T06:41:05.708Z,10.50
2022-10-14T06:43:32.868Z,10.52
2022-10-14T06:45:59.661Z,10.55
2022-10-14T06:48:26.634Z,10.57
2022-10-14T06:50:53.763Z,10.61
2022-10-14T06:53:21.127Z,10.65
2022-10-14T06:55:47.773Z,10.70
2022-10-14T06:58:14.490Z,10.72
2022-10-14T07:00:44.391Z,10.81
2022-10-14T07:03:15.463Z,10.88
2022-10-14T07:05:42.044Z,10.99
2022-10-14T07:08:11.366Z,11.04
2022-10-14T07:10:41.110Z,11.03
2022-10-14T07:13:07.737Z,11.14
2022-10-14T07:15:36.349Z,11.12
2022-10-14T07:18:04.530Z,11.26
2022-10-14T07:20:31.145Z,11.21
2022-10-14T07:22:57.782Z,11.20
2022-10-14T07:25:24.567Z,11.40
2022-10-14T07:27:53.275Z,11.40
2022-10-14T07:30:20.260Z,11.40
2022-10-14T07:32:47.020Z,11.49
2022-10-14T07:35:13.736Z,11.52
2022-10-14T07:37:40.655Z,11.46
2022-10-14T07:40:08.291Z,11.58
2022-10-14T07:42:34.884Z,11.71
2022-10-14T07:45:01.802Z,11.78
2022-10-14T07:47:28.473Z,11.69
2022-10-14T07:49:55.106Z,11.60
2022-10-14T07:52:21.733Z,11.75
2022-10-14T07:54:49.503Z,11.65
2022-10-14T07:57:16.785Z,11.68
2022-10-14T07:59:43.435Z,11.76
2022-10-14T08:02:11.679Z,11.80
2022-10-14T08:04:38.564Z,11.82
2022-10-14T08:07:05.406Z,11.82
2022-10-14T08:09:35.972Z,11.91
2022-10-14T08:12:02.746Z,11.90
2022-10-14T08:14:29.478Z,11.93
2022-10-14T08:16:56.110Z,11.90
2022-10-14T08:19:23.122Z,11.94
2022-10-14T08:21:49.832Z,11.94
2022-10-14T08:24:16.449Z,11.94
2022-10-14T08:26:52.753Z,11.95
2022-10-14T08:29:19.435Z,11.98
2022-10-14T08:31:46.469Z,12.09
2022-10-14T08:34:13.143Z,12.08
2022-10-14T08:36:39.888Z,12.14
2022-10-14T08:39:07.363Z,12.25
2022-10-14T08:41:49.317Z,12.42
2022-10-14T08:44:23.039Z,12.42
2022-10-14T08:47:00.522Z,12.56
2022-10-14T08:49:29.163Z,12.67
2022-10-14T08:52:03.317Z,12.72
2022-10-14T08:54:35.185Z,12.85
2022-10-14T08:57:04.474Z,12.92
2022-10-14T08:59:40.392Z,12.83
2022-10-14T09:02:34.005Z,12.75
2022-10-14T09:05:02.197Z,12.84
2022-10-14T09:07:31.801Z,12.90
2022-10-14T09:10:03.658Z,12.91
2022-10-14T09:12:33.252Z,12.95
2022-10-14T09:15:19.759Z,12.82
2022-10-14T09:17:57.197Z,12.77
2022-10-14T09:20:25.635Z,12.74
2022-10-14T09:23:05.299Z,12.72
2022-10-14T09:25:35.051Z,12.88
2022-10-14T09:28:02.220Z,13.12
2022-10-14T09:30:35.647Z,12.96
2022-10-14T09:33:04.723Z,12.89
2022-10-14T09:35:35.377Z,13.04
2022-10-14T09:38:02.089Z,13.04
2022-10-14T09:40:35.185Z,12.95
2022-10-14T09:43:18.785Z,12.92
2022-10-14T09:46:07.951Z,12.90
2022-10-14T09:48:44.603Z,12.97
2022-10-14T09:51:19.647Z,13.01
2022-10-14T09:53:51.969Z,13.01
2022-10-14T09:56:29.436Z,13.02
2022-10-14T09:58:58.212Z,13.02
2022-10-14T10:01:27.646Z,13.04
2022-10-14T10:03:55.746Z,13.08
2022-10-14T10:06:26.502Z,13.10
2022-10-14T10:08:53.024Z,13.14
2022-10-14T10:11:33.538Z,13.17
2022-10-14T10:14:19.001Z,13.37
2022-10-14T10:16:45.723Z,13.32
2022-10-14T10:19:28.866Z,13.25
2022-10-14T10:22:14.879Z,13.28
2022-10-14T10:24:41.583Z,13.50
2022-10-14T10:27:25.838Z,13.51
2022-10-14T10:29:55.838Z,13.84
2022-10-14T10:32:30.247Z,13.92
2022-10-14T10:35:12.454Z,13.91
2022-10-14T10:38:02.325Z,14.13
2022-10-14T10:40:39.157Z,14.12
2022-10-14T10:43:06.877Z,14.14
2022-10-14T10:45:53.492Z,14.31
2022-10-14T10:48:25.984Z,14.44
2022-10-14T10:51:05.484Z,14.59
2022-10-14T10:53:49.753Z,14.92
2022-10-14T10:56:38.757Z,15.07
2022-10-14T10:59:39.197Z,15.06
2022-10-14T11:02:41.039Z,14.91
2022-10-14T11:05:23.480Z,14.77
2022-10-14T11:08:14.705Z,14.79
2022-10-14T11:11:36.441Z,14.73
2022-10-14T11:14:16.008Z,14.94
2022-10-14T11:17:03.246Z,15.17
2022-10-14T11:19:40.897Z,15.36
2022-10-14T11:22:34.554Z,15.49
2022-10-14T11:25:07.951Z,15.49
2022-10-14T11:27:43.696Z,15.64
2022-10-14T11:30:16.176Z,15.59
2022-10-14T11:32:42.818Z,15.52
2022-10-14T11:35:19.399Z,15.68
2022-10-14T11:38:21.699Z,15.81
2022-10-14T11:41:03.631Z,15.97
2022-10-14T11:43:39.480Z,15.97
2022-10-14T11:46:08.965Z,15.98
2022-10-14T11:48:59.053Z,16.03
2022-10-14T11:51:36.292Z,16.09
2022-10-14T11:54:05.754Z,15.95
2022-10-14T11:56:43.519Z,15.96
2022-10-14T11:59:49.697Z,15.97
2022-10-14T12:02:21.895Z,15.97
2022-10-14T12:04:57.654Z,15.83
2022-10-14T12:07:31.762Z,15.77
2022-10-14T12:10:03.103Z,15.67
2022-10-14T12:12:32.388Z,15.70
2022-10-14T12:15:04.356Z,15.61
2022-10-14T12:17:46.320Z,15.59
2022-10-14T12:20:22.326Z,15.87
2022-10-14T12:22:50.407Z,16.10
2022-10-14T12:25:20.428Z,16.23
2022-10-14T12:27:48.365Z,16.38
2022-10-14T12:30:47.374Z,16.31
2022-10-14T12:33:22.406Z,16.37
2022-10-14T12:36:00.893Z,16.33
2022-10-14T12:38:29.566Z,16.30
2022-10-14T12:41:32.246Z,16.19
2022-10-14T12:44:01.842Z,16.29
2022-10-14T12:46:28.477Z,16.59
2022-10-14T12:48:55.129Z,16.80
2022-10-14T12:51:24.367Z,16.98
2022-10-14T12:54:12.366Z,16.84
2022-10-14T12:56:44.687Z,16.68
2022-10-14T12:59:25.503Z,16.59
2022-10-14T13:02:00.390Z,16.54
2022-10-14T13:04:28.648Z,16.51
2022-10-14T13:07:46.584Z,16.58
2022-10-14T13:10:49.780Z,16.87
2022-10-14T13:13:49.402Z,17.06
2022-10-14T13:16:19.176Z,16.97
2022-10-14T13:18:45.763Z,16.89
2022-10-14T13:21:52.764Z,16.79
2022-10-14T13:24:30.454Z,16.71
2022-10-14T13:27:01.117Z,16.67
2022-10-14T13:30:02.643Z,16.90
2022-10-14T13:32:44.424Z,17.15
2022-10-14T13:35:34.739Z,17.29
2022-10-14T13:38:07.310Z,17.40
2022-10-14T13:40:38.668Z,17.61
2022-10-14T13:43:13.715Z,17.46
2022-10-14T13:45:50.723Z,17.26
2022-10-14T13:48:30.736Z,17.21
2022-10-14T13:51:37.101Z,17.36
2022-10-14T13:54:22.194Z,17.28
2022-10-14T13:57:42.552Z,17.67
2022-10-14T14:02:48.063Z,17.78
2022-10-14T14:05:19.222Z,18.09
2022-10-14T14:10:39.197Z,17.76
2022-10-14T14:13:14.059Z,17.81
2022-10-14T14:15:40.963Z,17.81
2022-10-14T14:18:30.443Z,17.64
2022-10-14T14:21:04.974Z,17.66
2022-10-14T14:23:31.605Z,17.72
2022-10-14T14:26:18.473Z,17.67
2022-10-14T14:28:48.281Z,17.64
2022-10-14T14:31:19.165Z,17.67
2022-10-14T14:33:46.719Z,17.55
2022-10-14T14:36:27.550Z,17.40
2022-10-14T14:38:57.896Z,17.40
2022-10-14T14:41:26.917Z,17.35
2022-10-14T14:44:23.947Z,17.25
2022-10-14T14:46:45.507Z,17.16
2022-10-14T14:49:17.030Z,16.97
2022-10-14T14:51:44.487Z,16.91
2022-10-14T14:54:22.493Z,16.79
2022-10-14T14:57:04.690Z,16.68
2022-10-14T14:59:35.548Z,16.59
2022-10-14T15:02:04.977Z,16.55
2022-10-14T15:04:34.941Z,16.40
2022-10-14T15:07:18.700Z,16.28
2022-10-14T15:09:52.235Z,16.12
2022-10-14T15:12:22.121Z,16.04
2022-10-14T15:14:51.177Z,15.95
2022-10-14T15:17:34.234Z,15.87
2022-10-14T15:20:28.986Z,15.83
2022-10-14T15:22:55.699Z,15.77
2022-10-14T15:25:23.371Z,15.71
2022-10-14T15:27:55.016Z,15.64
2022-10-14T15:30:31.993Z,15.58
2022-10-14T15:33:15.466Z,15.52
2022-10-14T15:35:43.561Z,15.50
2022-10-14T15:38:16.645Z,15.41
2022-10-14T15:40:44.759Z,15.37
2022-10-14T15:43:17.620Z,15.31
2022-10-14T15:45:46.346Z,15.26
2022-10-14T15:48:19.976Z,15.20
2022-10-14T15:50:48.111Z,15.14
2022-10-14T15:53:17.273Z,15.08
2022-10-14T15:55:44.169Z,15.02
2022-10-14T15:58:10.774Z,14.98
2022-10-14T16:00:37.475Z,14.95
2022-10-14T16:03:04.251Z,14.91
2022-10-14T16:05:30.977Z,14.86
2022-10-14T16:07:57.799Z,14.78
2022-10-14T16:10:26.455Z,14.72
2022-10-14T16:12:54.692Z,14.68
2022-10-14T16:15:51.874Z,14.62
2022-10-14T16:18:18.518Z,14.57
2022-10-14T16:20:46.360Z,14.52
2022-10-14T16:23:18.584Z,14.47
2022-10-14T16:25:46.868Z,14.43
2022-10-14T16:28:13.954Z,14.37
2022-10-14T16:30:44.085Z,14.32
2022-10-14T16:35:38.407Z,14.23
2022-10-14T16:38:04.989Z,14.15
2022-10-14T16:40:36.567Z,14.09
2022-10-14T16:43:04.276Z,14.04
2022-10-14T16:45:30.958Z,14.01
2022-10-14T16:47:57.571Z,13.96
2022-10-14T16:50:24.430Z,13.91
2022-10-14T16:53:06.338Z,13.86
2022-10-14T16:55:33.387Z,13.82
2022-10-14T16:58:00.013Z,13.81
2022-10-14T17:00:26.614Z,13.71
2022-10-14T17:02:56.386Z,13.66
2022-10-14T17:05:23.006Z,13.61
2022-10-14T17:07:49.650Z,13.60
2022-10-14T17:10:16.810Z,13.57
2022-10-14T17:12:43.462Z,13.53
2022-10-14T17:15:10.518Z,13.51
2022-10-14T17:17:40.456Z,13.44
2022-10-14T17:20:09.376Z,13.35
2022-10-14T17:22:36.125Z,13.30
2022-10-14T17:25:02.853Z,13.26
2022-10-14T17:27:29.426Z,13.18
2022-10-14T17:29:56.083Z,13.21
2022-10-14T17:32:22.840Z,13.15
2022-10-14T17:34:53.317Z,13.11
2022-10-14T17:37:20.688Z,13.07
2022-10-14T17:39:47.292Z,13.07
2022-10-14T17:42:13.911Z,13.05
2022-10-14T17:44:43.807Z,13.04
2022-10-14T17:47:10.971Z,13.04
2022-10-14T17:49:37.582Z,13.02
2022-10-14T17:52:06.198Z,13.04
2022-10-14T17:54:32.843Z,12.96
2022-10-14T17:56:59.471Z,12.87
2022-10-14T17:59:26.128Z,12.87
2022-10-14T18:02:08.106Z,12.84
2022-10-14T18:04:34.856Z,12.83
2022-10-14T18:07:01.657Z,12.82
2022-10-14T18:09:29.672Z,12.84
2022-10-14T18:12:13.119Z,12.85
2022-10-14T18:14:40.673Z,12.87
2022-10-14T18:17:10.686Z,12.84
2022-10-14T18:19:37.414Z,12.81
2022-10-14T18:22:04.234Z,12.79
2022-10-14T18:24:30.890Z,12.79
2022-10-14T18:26:57.459Z,12.76
2022-10-14T18:29:24.713Z,12.74
2022-10-14T18:34:19.074Z,12.76
2022-10-14T18:36:47.818Z,12.71
2022-10-14T18:39:15.461Z,12.66
2022-10-14T18:41:43.898Z,12.61
2022-10-14T18:44:10.613Z,12.58
2022-10-14T18:46:39.382Z,12.57
2022-10-14T18:49:08.712Z,12.56
2022-10-14T18:51:37.946Z,12.56
2022-10-14T18:54:07.805Z,12.54
2022-10-14T18:56:38.718Z,12.54
2022-10-14T18:59:09.127Z,12.49
2022-10-14T19:01:37.850Z,12.48
2022-10-14T19:04:06.661Z,12.47
2022-10-14T19:06:34.763Z,12.49
2022-10-14T19:09:02.000Z,12.50
2022-10-14T19:11:29.611Z,12.52
2022-10-14T19:13:58.274Z,12.52
2022-10-14T19:16:33.639Z,12.50
2022-10-14T19:19:04.588Z,12.50
2022-10-14T19:21:31.767Z,12.50
2022-10-14T19:23:59.043Z,12.45
2022-10-14T19:26:30.962Z,12.41
2022-10-14T19:29:01.543Z,12.38
2022-10-14T19:31:30.927Z,12.38
2022-10-14T19:33:59.792Z,12.40
2022-10-14T19:36:26.467Z,12.41
2022-10-14T19:38:57.981Z,12.42
2022-10-14T19:41:28.186Z,12.43
2022-10-14T19:43:56.955Z,12.44
2022-10-14T19:46:27.603Z,12.43
2022-10-14T19:48:57.468Z,12.54
2022-10-14T19:51:25.171Z,12.47
2022-10-14T19:53:53.832Z,12.45
2022-10-14T19:56:20.769Z,12.42
2022-10-14T19:58:51.919Z,12.41
2022-10-14T20:01:19.993Z,12.40
2022-10-14T20:03:47.141Z,12.40
2022-10-14T20:06:14.044Z,12.39
2022-10-14T20:08:41.211Z,12.41
2022-10-14T20:11:10.090Z,12.44
2022-10-14T20:13:37.703Z,12.46
2022-10-14T20:16:06.582Z,12.47
2022-10-14T20:18:33.462Z,12.47
2022-10-14T20:21:02.704Z,12.46
2022-10-14T20:23:32.433Z,12.50
2022-10-14T20:26:00.566Z,12.50
2022-10-14T20:28:27.163Z,12.51
2022-10-14T20:30:54.328Z,12.52
2022-10-14T20:33:21.054Z,12.51
2022-10-14T20:35:47.680Z,12.53
2022-10-14T20:38:14.373Z,12.54
2022-10-14T20:40:41.003Z,12.55
2022-10-14T20:43:07.580Z,12.57
2022-10-14T20:45:34.292Z,12.57
2022-10-14T20:48:01.099Z,12.57
2022-10-14T20:50:27.714Z,12.58
2022-10-14T20:52:54.290Z,12.58
2022-10-14T20:55:20.907Z,12.60
2022-10-14T20:57:49.903Z,12.60
2022-10-14T21:00:16.738Z,12.59
2022-10-14T21:05:19.240Z,12.57
2022-10-14T21:07:45.922Z,12.59
2022-10-14T21:10:12.546Z,12.59
2022-10-14T21:12:39.187Z,12.55
2022-10-14T21:15:06.251Z,12.59
2022-10-14T21:17:32.866Z,12.62
2022-10-14T21:20:02.686Z,12.64
2022-10-14T21:22:29.428Z,12.66
2022-10-14T21:24:56.054Z,12.80
2022-10-14T21:27:22.903Z,12.74
2022-10-14T21:29:49.925Z,12.72
2022-10-14T21:32:16.629Z,12.71
2022-10-14T21:34:43.253Z,12.67
2022-10-14T21:37:09.945Z,12.67
2022-10-14T21:39:36.528Z,12.66
2022-10-14T21:42:03.208Z,12.64
2022-10-14T21:44:29.863Z,12.58
2022-10-14T21:46:56.444Z,12.56
2022-10-14T21:49:23.217Z,12.55
2022-10-14T21:51:49.840Z,12.51
2022-10-14T21:54:16.453Z,12.49
2022-10-14T21:56:43.405Z,12.46
2022-10-14T21:59:11.568Z,12.39
2022-10-14T22:01:38.353Z,12.43
2022-10-14T22:04:06.385Z,12.41
2022-10-14T22:06:34.827Z,12.32
2022-10-14T22:09:03.728Z,12.34
2022-10-14T22:11:34.471Z,12.31
2022-10-14T22:14:03.374Z,12.32
2022-10-14T22:16:30.631Z,12.30
2022-10-14T22:19:00.275Z,12.29
2022-10-14T22:21:28.992Z,12.28
2022-10-14T22:23:55.981Z,12.26
2022-10-14T22:26:24.512Z,12.24
2022-10-14T22:29:02.250Z,12.23
2022-10-14T22:31:30.428Z,12.22
2022-10-14T22:33:58.297Z,12.22
2022-10-14T22:36:28.908Z,12.21
2022-10-14T22:38:56.803Z,12.20
2022-10-14T22:41:25.435Z,12.18
2022-10-14T22:43:54.655Z,12.17
2022-10-14T22:46:23.888Z,12.13
2022-10-14T22:48:56.250Z,12.15
2022-10-14T22:51:31.974Z,12.15
2022-10-14T22:53:59.021Z,12.15
2022-10-14T22:56:28.467Z,12.14
2022-10-14T22:58:56.973Z,12.10
2022-10-14T23:01:24.201Z,12.08
2022-10-14T23:03:50.828Z,12.04
2022-10-14T23:06:17.614Z,12.01
2022-10-14T23:08:44.412Z,11.98
2022-10-14T23:11:15.695Z,11.99
2022-10-14T23:13:42.821Z,11.98
2022-10-14T23:16:14.799Z,12.00
2022-10-14T23:21:18.256Z,12.02
2022-10-14T23:23:46.296Z,12.04
2022-10-14T23:26:15.068Z,12.01
2022-10-14T23:28:42.358Z,12.00
2022-10-14T23:31:11.351Z,12.00
2022-10-14T23:33:39.146Z,11.99
2022-10-14T23:36:07.372Z,12.01
2022-10-14T23:38:35.210Z,12.01
2022-10-14T23:41:03.292Z,12.02
2022-10-14T23:43:30.368Z,12.02
2022-10-14T23:45:57.107Z,12.03
2022-10-14T23:48:23.747Z,12.00
2022-10-14T23:50:50.784Z,12.00
2022-10-14T23:53:17.819Z,12.01
2022-10-14T23:55:44.973Z,12.00
2022-10-14T23:58:12.687Z,12.01
